sensor_id;sensor_type;location;lat;lon;timestamp;pressure;altitude;pressure_sealevel;temperature;humidity
12949;BME280;6539;49.476;8.484;2023-05-24T00:00:02;100992.81;;;17.17;46.89
12949;BME280;6539;49.476;8.484;2023-05-24T00:02:29;100982.66;;;17.27;47.01
12949;BME280;6539;49.476;8.484;2023-05-24T00:04:57;100983.34;;;17.15;46.54
12949;BME280;6539;49.476;8.484;2023-05-24T00:07:25;100980.91;;;17.17;46.40
12949;BME280;6539;49.476;8.484;2023-05-24T00:09:51;100977.38;;;17.16;46.45
12949;BME280;6539;49.476;8.484;2023-05-24T00:12:17;100977.22;;;17.07;46.49
12949;BME280;6539;49.476;8.484;2023-05-24T00:14:42;100980.84;;;17.04;46.61
12949;BME280;6539;49.476;8.484;2023-05-24T00:17:10;100982.34;;;16.93;46.67
12949;BME280;6539;49.476;8.484;2023-05-24T00:19:37;100979.66;;;16.89;46.83
12949;BME280;6539;49.476;8.484;2023-05-24T00:22:03;100977.66;;;16.90;46.79
12949;BME280;6539;49.476;8.484;2023-05-24T00:24:29;100980.09;;;16.88;46.64
12949;BME280;6539;49.476;8.484;2023-05-24T00:26:55;100970.53;;;16.89;46.57
12949;BME280;6539;49.476;8.484;2023-05-24T00:29:21;100983.22;;;16.90;46.51
12949;BME280;6539;49.476;8.484;2023-05-24T00:31:50;100976.53;;;16.87;46.25
12949;BME280;6539;49.476;8.484;2023-05-24T00:34:15;100977.66;;;16.90;46.37
12949;BME280;6539;49.476;8.484;2023-05-24T00:36:41;100967.78;;;16.89;46.28
12949;BME280;6539;49.476;8.484;2023-05-24T00:39:07;100969.69;;;16.92;46.40
12949;BME280;6539;49.476;8.484;2023-05-24T00:41:32;100962.59;;;16.91;45.97
12949;BME280;6539;49.476;8.484;2023-05-24T00:44:00;100959.19;;;16.99;45.82
12949;BME280;6539;49.476;8.484;2023-05-24T00:46:31;100955.38;;;16.93;45.59
12949;BME280;6539;49.476;8.484;2023-05-24T00:49:02;100960.34;;;16.86;46.31
12949;BME280;6539;49.476;8.484;2023-05-24T00:51:31;100948.78;;;16.87;45.73
12949;BME280;6539;49.476;8.484;2023-05-24T00:53:58;100948.91;;;16.84;45.81
12949;BME280;6539;49.476;8.484;2023-05-24T00:56:27;100949.25;;;16.86;46.00
12949;BME280;6539;49.476;8.484;2023-05-24T00:58:55;100947.66;;;16.85;45.79
12949;BME280;6539;49.476;8.484;2023-05-24T01:01:22;100946.13;;;16.84;45.46
12949;BME280;6539;49.476;8.484;2023-05-24T01:03:53;100942.84;;;16.72;45.66
12949;BME280;6539;49.476;8.484;2023-05-24T01:06:22;100937.72;;;16.71;45.68
12949;BME280;6539;49.476;8.484;2023-05-24T01:11:52;100940.41;;;16.74;45.54
12949;BME280;6539;49.476;8.484;2023-05-24T01:20:20;100942.50;;;16.70;45.63
12949;BME280;6539;49.476;8.484;2023-05-24T01:28:56;100955.81;;;16.59;45.79
12949;BME280;6539;49.476;8.484;2023-05-24T01:31:27;100956.44;;;16.51;45.80
12949;BME280;6539;49.476;8.484;2023-05-24T01:33:57;100956.00;;;16.52;45.84
12949;BME280;6539;49.476;8.484;2023-05-24T01:36:30;100950.16;;;16.47;45.86
12949;BME280;6539;49.476;8.484;2023-05-24T01:38:58;100959.75;;;16.42;46.16
12949;BME280;6539;49.476;8.484;2023-05-24T01:41:46;100964.63;;;16.38;45.68
12949;BME280;6539;49.476;8.484;2023-05-24T01:50:52;100983.81;;;16.29;46.29
12949;BME280;6539;49.476;8.484;2023-05-24T01:53:25;100978.78;;;16.24;46.67
12949;BME280;6539;49.476;8.484;2023-05-24T01:55:55;100978.38;;;16.26;46.63
12949;BME280;6539;49.476;8.484;2023-05-24T01:58:24;100980.78;;;16.24;46.86
12949;BME280;6539;49.476;8.484;2023-05-24T02:00:56;100982.78;;;16.23;47.05
12949;BME280;6539;49.476;8.484;2023-05-24T02:03:22;100989.09;;;16.24;46.69
12949;BME280;6539;49.476;8.484;2023-05-24T02:05:48;100974.47;;;16.23;46.60
12949;BME280;6539;49.476;8.484;2023-05-24T02:08:16;100978.00;;;16.24;46.46
12949;BME280;6539;49.476;8.484;2023-05-24T02:10:41;100971.06;;;16.16;46.26
12949;BME280;6539;49.476;8.484;2023-05-24T02:13:08;100979.44;;;16.12;46.30
12949;BME280;6539;49.476;8.484;2023-05-24T02:15:34;100969.22;;;16.09;46.61
12949;BME280;6539;49.476;8.484;2023-05-24T02:18:00;100972.34;;;16.11;46.56
12949;BME280;6539;49.476;8.484;2023-05-24T02:20:28;100974.75;;;16.09;46.47
12949;BME280;6539;49.476;8.484;2023-05-24T02:23:05;100971.63;;;16.07;46.27
12949;BME280;6539;49.476;8.484;2023-05-24T02:25:36;100972.66;;;15.97;46.56
12949;BME280;6539;49.476;8.484;2023-05-24T02:28:07;100979.72;;;15.98;46.71
12949;BME280;6539;49.476;8.484;2023-05-24T02:30:36;100987.69;;;15.96;46.63
12949;BME280;6539;49.476;8.484;2023-05-24T02:33:02;100984.06;;;15.99;46.75
12949;BME280;6539;49.476;8.484;2023-05-24T02:35:28;100987.69;;;15.96;46.72
12949;BME280;6539;49.476;8.484;2023-05-24T02:37:56;100992.53;;;15.92;46.81
12949;BME280;6539;49.476;8.484;2023-05-24T02:40:25;100988.25;;;15.87;46.75
12949;BME280;6539;49.476;8.484;2023-05-24T02:42:53;100984.53;;;15.78;47.02
12949;BME280;6539;49.476;8.484;2023-05-24T02:45:21;100975.78;;;15.79;47.07
12949;BME280;6539;49.476;8.484;2023-05-24T02:47:47;100979.78;;;15.78;47.31
12949;BME280;6539;49.476;8.484;2023-05-24T02:50:13;100979.38;;;15.76;47.11
12949;BME280;6539;49.476;8.484;2023-05-24T02:52:39;100982.47;;;15.82;47.31
12949;BME280;6539;49.476;8.484;2023-05-24T02:55:05;100975.78;;;15.79;47.29
12949;BME280;6539;49.476;8.484;2023-05-24T02:57:31;100980.97;;;15.77;47.45
12949;BME280;6539;49.476;8.484;2023-05-24T03:00:00;100979.78;;;15.78;47.30
12949;BME280;6539;49.476;8.484;2023-05-24T03:02:26;100984.88;;;15.80;47.31
12949;BME280;6539;49.476;8.484;2023-05-24T03:04:56;100973.44;;;15.78;47.35
12949;BME280;6539;49.476;8.484;2023-05-24T03:07:22;100976.28;;;15.74;47.76
12949;BME280;6539;49.476;8.484;2023-05-24T03:09:50;100977.94;;;15.72;47.53
12949;BME280;6539;49.476;8.484;2023-05-24T03:12:18;100973.66;;;15.67;47.39
12949;BME280;6539;49.476;8.484;2023-05-24T03:14:46;100974.06;;;15.66;47.68
12949;BME280;6539;49.476;8.484;2023-05-24T03:17:12;100974.50;;;15.64;47.54
12949;BME280;6539;49.476;8.484;2023-05-24T03:19:41;100973.00;;;15.60;47.47
12949;BME280;6539;49.476;8.484;2023-05-24T03:22:07;100974.94;;;15.63;47.69
12949;BME280;6539;49.476;8.484;2023-05-24T03:24:35;100979.69;;;15.62;47.72
12949;BME280;6539;49.476;8.484;2023-05-24T03:27:05;100977.34;;;15.61;47.79
12949;BME280;6539;49.476;8.484;2023-05-24T03:29:33;100971.94;;;15.54;48.05
12949;BME280;6539;49.476;8.484;2023-05-24T03:31:59;100977.84;;;15.56;47.84
12949;BME280;6539;49.476;8.484;2023-05-24T03:34:24;100974.63;;;15.57;48.00
12949;BME280;6539;49.476;8.484;2023-05-24T03:36:55;100982.94;;;15.57;47.81
12949;BME280;6539;49.476;8.484;2023-05-24T03:39:23;100978.28;;;15.54;47.78
12949;BME280;6539;49.476;8.484;2023-05-24T03:41:48;100980.25;;;15.54;48.37
12949;BME280;6539;49.476;8.484;2023-05-24T03:44:17;100982.31;;;15.50;48.01
12949;BME280;6539;49.476;8.484;2023-05-24T03:46:45;100977.56;;;15.50;48.16
12949;BME280;6539;49.476;8.484;2023-05-24T03:49:11;100978.47;;;15.44;48.24
12949;BME280;6539;49.476;8.484;2023-05-24T03:51:43;100995.66;;;15.32;48.54
12949;BME280;6539;49.476;8.484;2023-05-24T03:54:09;100986.50;;;15.35;48.51
12949;BME280;6539;49.476;8.484;2023-05-24T03:56:42;100988.94;;;15.33;48.71
12949;BME280;6539;49.476;8.484;2023-05-24T03:59:11;100988.56;;;15.31;48.70
12949;BME280;6539;49.476;8.484;2023-05-24T04:01:37;100986.94;;;15.33;48.72
12949;BME280;6539;49.476;8.484;2023-05-24T04:04:06;100989.03;;;15.25;48.61
12949;BME280;6539;49.476;8.484;2023-05-24T04:06:31;100985.56;;;15.21;48.74
12949;BME280;6539;49.476;8.484;2023-05-24T04:09:00;100986.47;;;15.15;49.21
12949;BME280;6539;49.476;8.484;2023-05-24T04:11:26;100980.88;;;15.18;48.95
12949;BME280;6539;49.476;8.484;2023-05-24T04:13:56;100991.88;;;15.22;48.66
12949;BME280;6539;49.476;8.484;2023-05-24T04:16:25;100980.94;;;15.15;48.81
12949;BME280;6539;49.476;8.484;2023-05-24T04:18:55;100988.81;;;15.16;48.88
12949;BME280;6539;49.476;8.484;2023-05-24T04:21:22;100988.63;;;15.27;48.63
12949;BME280;6539;49.476;8.484;2023-05-24T04:23:50;100986.75;;;15.20;48.65
12949;BME280;6539;49.476;8.484;2023-05-24T04:26:15;100989.88;;;15.22;48.77
12949;BME280;6539;49.476;8.484;2023-05-24T04:28:42;100991.03;;;15.25;48.62
12949;BME280;6539;49.476;8.484;2023-05-24T04:31:07;100993.03;;;15.24;48.52
12949;BME280;6539;49.476;8.484;2023-05-24T04:33:36;100989.75;;;15.29;48.66
12949;BME280;6539;49.476;8.484;2023-05-24T04:36:07;100989.75;;;15.29;48.90
12949;BME280;6539;49.476;8.484;2023-05-24T04:38:38;100994.03;;;15.34;48.65
12949;BME280;6539;49.476;8.484;2023-05-24T04:41:06;100992.84;;;15.35;48.62
12949;BME280;6539;49.476;8.484;2023-05-24T04:43:35;100994.03;;;15.34;48.62
12949;BME280;6539;49.476;8.484;2023-05-24T04:46:03;100997.94;;;15.37;48.50
12949;BME280;6539;49.476;8.484;2023-05-24T04:48:29;100994.09;;;15.31;48.51
12949;BME280;6539;49.476;8.484;2023-05-24T04:51:02;101000.81;;;15.29;48.64
12949;BME280;6539;49.476;8.484;2023-05-24T04:53:28;100999.69;;;15.27;48.66
12949;BME280;6539;49.476;8.484;2023-05-24T04:55:56;101008.88;;;15.20;48.57
12949;BME280;6539;49.476;8.484;2023-05-24T04:58:22;101007.03;;;15.14;49.05
12949;BME280;6539;49.476;8.484;2023-05-24T05:00:48;101007.94;;;15.31;51.29
12949;BME280;6539;49.476;8.484;2023-05-24T05:03:16;101014.28;;;15.27;48.75
12949;BME280;6539;49.476;8.484;2023-05-24T05:05:49;101012.56;;;15.37;48.60
12949;BME280;6539;49.476;8.484;2023-05-24T05:08:17;101021.41;;;15.28;48.82
12949;BME280;6539;49.476;8.484;2023-05-24T05:10:43;101019.84;;;15.27;48.98
12949;BME280;6539;49.476;8.484;2023-05-24T05:13:09;101019.03;;;15.27;48.97
12949;BME280;6539;49.476;8.484;2023-05-24T05:15:34;101017.53;;;15.22;48.52
12949;BME280;6539;49.476;8.484;2023-05-24T05:18:00;101020.44;;;15.15;48.97
12949;BME280;6539;49.476;8.484;2023-05-24T05:20:26;101028.25;;;15.20;48.90
12949;BME280;6539;49.476;8.484;2023-05-24T05:22:51;101014.19;;;15.35;48.82
12949;BME280;6539;49.476;8.484;2023-05-24T05:25:19;101017.22;;;15.44;48.36
12949;BME280;6539;49.476;8.484;2023-05-24T05:27:45;101015.59;;;15.43;48.07
12949;BME280;6539;49.476;8.484;2023-05-24T05:30:12;101008.41;;;15.49;47.85
12949;BME280;6539;49.476;8.484;2023-05-24T05:32:38;101010.63;;;15.57;47.72
12949;BME280;6539;49.476;8.484;2023-05-24T05:35:04;101012.69;;;15.73;47.17
12949;BME280;6539;49.476;8.484;2023-05-24T05:37:32;101015.94;;;15.68;47.21
12949;BME280;6539;49.476;8.484;2023-05-24T05:40:00;101023.34;;;15.74;46.72
12949;BME280;6539;49.476;8.484;2023-05-24T05:42:26;101023.34;;;15.74;46.64
12949;BME280;6539;49.476;8.484;2023-05-24T05:44:54;101019.09;;;15.70;46.44
12949;BME280;6539;49.476;8.484;2023-05-24T05:47:20;101017.53;;;15.69;46.51
12949;BME280;6539;49.476;8.484;2023-05-24T05:49:48;101024.63;;;15.70;46.70
12949;BME280;6539;49.476;8.484;2023-05-24T05:52:14;101021.44;;;15.71;46.71
12949;BME280;6539;49.476;8.484;2023-05-24T05:54:42;101025.63;;;15.79;46.50
12949;BME280;6539;49.476;8.484;2023-05-24T05:57:11;101030.00;;;15.77;46.38
12949;BME280;6539;49.476;8.484;2023-05-24T05:59:37;101026.84;;;15.78;46.71
12949;BME280;6539;49.476;8.484;2023-05-24T06:02:05;101038.03;;;15.71;46.37
12949;BME280;6539;49.476;8.484;2023-05-24T06:04:31;101033.13;;;15.59;47.08
12949;BME280;6539;49.476;8.484;2023-05-24T06:07:01;101035.13;;;15.59;47.34
12949;BME280;6539;49.476;8.484;2023-05-24T06:09:30;101037.34;;;15.67;46.75
12949;BME280;6539;49.476;8.484;2023-05-24T06:11:57;101031.47;;;15.85;46.23
12949;BME280;6539;49.476;8.484;2023-05-24T06:14:28;101038.28;;;16.00;45.49
12949;BME280;6539;49.476;8.484;2023-05-24T06:16:56;101040.59;;;16.21;44.88
12949;BME280;6539;49.476;8.484;2023-05-24T06:19:24;101045.47;;;16.33;44.18
12949;BME280;6539;49.476;8.484;2023-05-24T06:21:51;101043.16;;;16.48;43.74
12949;BME280;6539;49.476;8.484;2023-05-24T06:24:20;101045.69;;;16.62;43.65
12949;BME280;6539;49.476;8.484;2023-05-24T06:26:50;101043.84;;;16.71;43.25
12949;BME280;6539;49.476;8.484;2023-05-24T06:29:17;101049.41;;;16.71;43.11
12949;BME280;6539;49.476;8.484;2023-05-24T06:31:45;101050.97;;;16.72;42.97
12949;BME280;6539;49.476;8.484;2023-05-24T06:34:12;101048.56;;;16.74;42.31
12949;BME280;6539;49.476;8.484;2023-05-24T06:36:44;101048.56;;;16.74;42.35
12949;BME280;6539;49.476;8.484;2023-05-24T06:39:14;101052.22;;;16.88;42.00
12949;BME280;6539;49.476;8.484;2023-05-24T06:41:40;101050.91;;;17.08;42.02
12949;BME280;6539;49.476;8.484;2023-05-24T06:44:07;101048.91;;;17.25;40.79
12949;BME280;6539;49.476;8.484;2023-05-24T06:46:36;101050.25;;;17.49;40.98
12949;BME280;6539;49.476;8.484;2023-05-24T06:49:02;101046.84;;;17.74;40.42
12949;BME280;6539;49.476;8.484;2023-05-24T06:51:28;101052.94;;;17.97;40.20
12949;BME280;6539;49.476;8.484;2023-05-24T06:53:54;101060.34;;;18.16;39.25
12949;BME280;6539;49.476;8.484;2023-05-24T06:56:24;101057.72;;;18.38;38.06
12949;BME280;6539;49.476;8.484;2023-05-24T06:58:54;101060.00;;;18.68;36.88
12949;BME280;6539;49.476;8.484;2023-05-24T07:01:22;101059.66;;;18.66;36.58
12949;BME280;6539;49.476;8.484;2023-05-24T07:03:55;101065.50;;;18.43;36.32
12949;BME280;6539;49.476;8.484;2023-05-24T07:06:23;101064.91;;;18.64;36.35
12949;BME280;6539;49.476;8.484;2023-05-24T07:08:53;101073.16;;;18.80;35.12
12949;BME280;6539;49.476;8.484;2023-05-24T07:11:24;101073.81;;;18.97;34.57
12949;BME280;6539;49.476;8.484;2023-05-24T07:13:52;101063.78;;;19.12;34.23
12949;BME280;6539;49.476;8.484;2023-05-24T07:16:18;101073.03;;;19.34;34.01
12949;BME280;6539;49.476;8.484;2023-05-24T07:18:44;101063.44;;;19.69;33.91
12949;BME280;6539;49.476;8.484;2023-05-24T07:21:09;101069.88;;;20.01;32.92
12949;BME280;6539;49.476;8.484;2023-05-24T07:23:43;101078.31;;;20.10;32.06
12949;BME280;6539;49.476;8.484;2023-05-24T07:26:13;101071.13;;;20.21;31.96
12949;BME280;6539;49.476;8.484;2023-05-24T07:28:39;101067.03;;;20.35;31.72
12949;BME280;6539;49.476;8.484;2023-05-24T07:31:08;101066.84;;;20.60;31.05
12949;BME280;6539;49.476;8.484;2023-05-24T07:33:39;101071.56;;;20.41;31.46
12949;BME280;6539;49.476;8.484;2023-05-24T07:36:08;101066.59;;;20.67;31.35
12949;BME280;6539;49.476;8.484;2023-05-24T07:38:34;101067.91;;;20.84;31.08
12949;BME280;6539;49.476;8.484;2023-05-24T07:41:02;101072.28;;;20.94;30.38
12949;BME280;6539;49.476;8.484;2023-05-24T07:43:33;101067.56;;;21.22;30.25
12949;BME280;6539;49.476;8.484;2023-05-24T07:45:59;101062.19;;;21.37;29.43
12949;BME280;6539;49.476;8.484;2023-05-24T07:48:27;101060.47;;;21.30;30.43
12949;BME280;6539;49.476;8.484;2023-05-24T07:50:55;101064.84;;;21.58;29.90
12949;BME280;6539;49.476;8.484;2023-05-24T07:53:21;101065.00;;;21.73;29.68
12949;BME280;6539;49.476;8.484;2023-05-24T07:55:52;101054.78;;;21.88;29.39
12949;BME280;6539;49.476;8.484;2023-05-24T07:58:18;101064.72;;;21.98;29.42
12949;BME280;6539;49.476;8.484;2023-05-24T08:00:43;101062.25;;;21.91;29.19
12949;BME280;6539;49.476;8.484;2023-05-24T08:03:10;101067.06;;;21.99;29.32
12949;BME280;6539;49.476;8.484;2023-05-24T08:05:41;101059.59;;;22.15;29.36
12949;BME280;6539;49.476;8.484;2023-05-24T08:08:07;101056.31;;;22.07;28.93
12949;BME280;6539;49.476;8.484;2023-05-24T08:10:35;101054.44;;;22.04;29.46
12949;BME280;6539;49.476;8.484;2023-05-24T08:13:02;101050.41;;;22.05;29.83
12949;BME280;6539;49.476;8.484;2023-05-24T08:15:30;101057.03;;;22.35;29.66
12949;BME280;6539;49.476;8.484;2023-05-24T08:17:56;101058.13;;;22.28;29.16
12949;BME280;6539;49.476;8.484;2023-05-24T08:20:21;101062.13;;;22.45;29.07
12949;BME280;6539;49.476;8.484;2023-05-24T08:22:50;101068.34;;;22.49;28.88
12949;BME280;6539;49.476;8.484;2023-05-24T08:25:16;101066.69;;;22.34;29.10
12949;BME280;6539;49.476;8.484;2023-05-24T08:27:41;101064.03;;;22.39;29.72
12949;BME280;6539;49.476;8.484;2023-05-24T08:30:10;101059.53;;;22.33;29.79
12949;BME280;6539;49.476;8.484;2023-05-24T08:32:38;101062.00;;;22.40;28.72
12949;BME280;6539;49.476;8.484;2023-05-24T08:35:05;101063.53;;;22.41;28.76
12949;BME280;6539;49.476;8.484;2023-05-24T08:37:33;101073.94;;;22.49;28.75
12949;BME280;6539;49.476;8.484;2023-05-24T08:40:01;101059.81;;;22.44;28.68
12949;BME280;6539;49.476;8.484;2023-05-24T08:42:30;101061.78;;;22.02;29.63
12949;BME280;6539;49.476;8.484;2023-05-24T08:45:10;101063.44;;;22.17;29.54
12949;BME280;6539;49.476;8.484;2023-05-24T08:47:38;101072.91;;;22.38;29.40
12949;BME280;6539;49.476;8.484;2023-05-24T08:50:06;101060.88;;;22.55;29.33
12949;BME280;6539;49.476;8.484;2023-05-24T08:52:35;101073.78;;;22.62;29.14
12949;BME280;6539;49.476;8.484;2023-05-24T08:55:04;101087.75;;;22.71;29.26
12949;BME280;6539;49.476;8.484;2023-05-24T08:57:33;101082.44;;;22.73;28.12
12949;BME280;6539;49.476;8.484;2023-05-24T09:00:02;101086.72;;;22.41;28.63
12949;BME280;6539;49.476;8.484;2023-05-24T09:02:31;101074.72;;;22.50;28.57
12949;BME280;6539;49.476;8.484;2023-05-24T09:05:00;101077.84;;;22.61;28.67
12949;BME280;6539;49.476;8.484;2023-05-24T09:07:29;101083.81;;;22.77;27.74
12949;BME280;6539;49.476;8.484;2023-05-24T09:10:00;101084.00;;;22.74;27.57
12949;BME280;6539;49.476;8.484;2023-05-24T09:12:31;101080.72;;;22.75;27.37
12949;BME280;6539;49.476;8.484;2023-05-24T09:15:10;101073.13;;;22.76;27.52
12949;BME280;6539;49.476;8.484;2023-05-24T09:17:37;101074.19;;;22.79;27.35
12949;BME280;6539;49.476;8.484;2023-05-24T09:20:06;101075.13;;;22.75;27.61
12949;BME280;6539;49.476;8.484;2023-05-24T09:22:34;101072.78;;;22.83;27.74
12949;BME280;6539;49.476;8.484;2023-05-24T09:25:04;101066.28;;;22.77;27.76
12949;BME280;6539;49.476;8.484;2023-05-24T09:27:32;101070.50;;;22.72;27.84
12949;BME280;6539;49.476;8.484;2023-05-24T09:29:59;101066.88;;;22.81;27.72
12949;BME280;6539;49.476;8.484;2023-05-24T09:32:30;101063.22;;;22.99;27.64
12949;BME280;6539;49.476;8.484;2023-05-24T09:34:58;101065.31;;;23.13;26.40
12949;BME280;6539;49.476;8.484;2023-05-24T09:37:28;101063.06;;;23.26;25.50
12949;BME280;6539;49.476;8.484;2023-05-24T09:39:56;101057.56;;;23.31;25.43
12949;BME280;6539;49.476;8.484;2023-05-24T09:42:26;101064.00;;;23.23;25.93
12949;BME280;6539;49.476;8.484;2023-05-24T09:44:59;101054.66;;;22.93;26.86
12949;BME280;6539;49.476;8.484;2023-05-24T09:47:30;101064.13;;;23.05;26.76
12949;BME280;6539;49.476;8.484;2023-05-24T09:49:59;101063.16;;;23.08;27.09
12949;BME280;6539;49.476;8.484;2023-05-24T09:52:26;101049.41;;;23.19;27.03
12949;BME280;6539;49.476;8.484;2023-05-24T09:54:54;101048.81;;;23.15;26.67
12949;BME280;6539;49.476;8.484;2023-05-24T09:57:20;101052.25;;;23.10;26.70
12949;BME280;6539;49.476;8.484;2023-05-24T09:59:48;101053.50;;;22.76;27.68
12949;BME280;6539;49.476;8.484;2023-05-24T10:02:15;101048.63;;;22.44;28.23
12949;BME280;6539;49.476;8.484;2023-05-24T10:04:43;101046.91;;;22.46;28.38
12949;BME280;6539;49.476;8.484;2023-05-24T10:07:15;101046.13;;;22.46;28.30
12949;BME280;6539;49.476;8.484;2023-05-24T10:09:44;101054.09;;;22.38;28.19
12949;BME280;6539;49.476;8.484;2023-05-24T10:12:12;101054.31;;;22.08;28.79
12949;BME280;6539;49.476;8.484;2023-05-24T10:14:38;101051.03;;;22.09;28.95
12949;BME280;6539;49.476;8.484;2023-05-24T10:17:06;101054.13;;;22.20;28.77
12949;BME280;6539;49.476;8.484;2023-05-24T10:19:36;101057.19;;;22.40;28.65
12949;BME280;6539;49.476;8.484;2023-05-24T10:22:06;101063.66;;;22.64;28.49
12949;BME280;6539;49.476;8.484;2023-05-24T10:24:45;101069.50;;;22.85;28.39
12949;BME280;6539;49.476;8.484;2023-05-24T10:27:16;101062.47;;;22.89;27.57
12949;BME280;6539;49.476;8.484;2023-05-24T10:32:15;101061.44;;;22.77;28.00
12949;BME280;6539;49.476;8.484;2023-05-24T10:34:44;101062.69;;;22.77;27.14
12949;BME280;6539;49.476;8.484;2023-05-24T10:37:10;101053.13;;;22.59;27.54
12949;BME280;6539;49.476;8.484;2023-05-24T10:39:36;101048.09;;;22.72;27.79
12949;BME280;6539;49.476;8.484;2023-05-24T10:42:05;101051.47;;;22.86;27.48
12949;BME280;6539;49.476;8.484;2023-05-24T10:44:34;101053.81;;;22.78;27.29
12949;BME280;6539;49.476;8.484;2023-05-24T10:47:11;101048.25;;;22.69;26.57
12949;BME280;6539;49.476;8.484;2023-05-24T10:49:52;101042.19;;;22.70;26.28
12949;BME280;6539;49.476;8.484;2023-05-24T10:52:33;101042.75;;;22.84;26.45
12949;BME280;6539;49.476;8.484;2023-05-24T10:55:08;101045.84;;;22.86;26.56
12949;BME280;6539;49.476;8.484;2023-05-24T10:57:35;101042.88;;;22.89;25.53
12949;BME280;6539;49.476;8.484;2023-05-24T11:02:48;101045.03;;;22.94;24.52
12949;BME280;6539;49.476;8.484;2023-05-24T11:05:17;101039.88;;;22.93;25.17
12949;BME280;6539;49.476;8.484;2023-05-24T11:07:43;101034.66;;;22.86;24.97
12949;BME280;6539;49.476;8.484;2023-05-24T11:10:14;101032.47;;;22.90;25.47
12949;BME280;6539;49.476;8.484;2023-05-24T11:12:43;101031.84;;;22.86;24.86
12949;BME280;6539;49.476;8.484;2023-05-24T11:15:10;101034.69;;;22.77;24.74
12949;BME280;6539;49.476;8.484;2023-05-24T11:20:42;101024.31;;;22.68;25.75
12949;BME280;6539;49.476;8.484;2023-05-24T11:23:11;101032.19;;;22.79;26.11
12949;BME280;6539;49.476;8.484;2023-05-24T11:25:37;101031.44;;;23.02;25.78
12949;BME280;6539;49.476;8.484;2023-05-24T11:28:07;101030.75;;;23.16;25.28
12949;BME280;6539;49.476;8.484;2023-05-24T11:30:46;101035.81;;;23.26;25.44
12949;BME280;6539;49.476;8.484;2023-05-24T11:33:22;101025.84;;;23.25;25.24
12949;BME280;6539;49.476;8.484;2023-05-24T11:35:54;101029.09;;;23.33;25.33
12949;BME280;6539;49.476;8.484;2023-05-24T11:38:20;101020.72;;;23.24;25.43
12949;BME280;6539;49.476;8.484;2023-05-24T11:40:48;101016.44;;;23.14;25.65
12949;BME280;6539;49.476;8.484;2023-05-24T11:43:18;101013.94;;;23.16;25.69
12949;BME280;6539;49.476;8.484;2023-05-24T11:45:51;101013.84;;;23.25;25.00
12949;BME280;6539;49.476;8.484;2023-05-24T11:48:18;101005.72;;;23.36;25.11
12949;BME280;6539;49.476;8.484;2023-05-24T11:50:50;101009.03;;;23.49;24.54
12949;BME280;6539;49.476;8.484;2023-05-24T11:53:18;101009.25;;;23.60;24.80
12949;BME280;6539;49.476;8.484;2023-05-24T11:55:47;101004.78;;;23.39;25.06
12949;BME280;6539;49.476;8.484;2023-05-24T11:58:22;101000.09;;;23.36;25.32
12949;BME280;6539;49.476;8.484;2023-05-24T12:00:51;101003.44;;;23.49;24.71
12949;BME280;6539;49.476;8.484;2023-05-24T12:03:21;101003.44;;;23.49;24.09
12949;BME280;6539;49.476;8.484;2023-05-24T12:05:47;100999.00;;;23.57;24.68
12949;BME280;6539;49.476;8.484;2023-05-24T12:08:13;100993.09;;;23.55;24.66
12949;BME280;6539;49.476;8.484;2023-05-24T12:10:43;100988.69;;;23.63;24.56
12949;BME280;6539;49.476;8.484;2023-05-24T12:13:24;100988.75;;;23.54;25.28
12949;BME280;6539;49.476;8.484;2023-05-24T12:15:53;100985.88;;;23.63;24.93
12949;BME280;6539;49.476;8.484;2023-05-24T12:18:24;100985.13;;;23.77;24.60
12949;BME280;6539;49.476;8.484;2023-05-24T12:20:53;100999.63;;;23.76;24.98
12949;BME280;6539;49.476;8.484;2023-05-24T12:23:26;100995.66;;;23.68;24.64
12949;BME280;6539;49.476;8.484;2023-05-24T12:26:00;100992.47;;;23.36;24.27
12949;BME280;6539;49.476;8.484;2023-05-24T12:28:31;100979.00;;;23.26;24.60
12949;BME280;6539;49.476;8.484;2023-05-24T12:31:00;100990.78;;;23.30;24.86
12949;BME280;6539;49.476;8.484;2023-05-24T12:33:27;100973.59;;;23.22;25.37
12949;BME280;6539;49.476;8.484;2023-05-24T12:35:53;100979.28;;;23.28;25.26
12949;BME280;6539;49.476;8.484;2023-05-24T12:38:23;100975.13;;;23.23;25.06
12949;BME280;6539;49.476;8.484;2023-05-24T12:40:51;100972.09;;;23.36;25.39
12949;BME280;6539;49.476;8.484;2023-05-24T12:43:19;100969.50;;;23.47;25.43
12949;BME280;6539;49.476;8.484;2023-05-24T12:45:47;100964.91;;;23.59;25.20
12949;BME280;6539;49.476;8.484;2023-05-24T12:48:13;100957.66;;;23.67;25.16
12949;BME280;6539;49.476;8.484;2023-05-24T12:50:41;100958.81;;;23.75;25.44
12949;BME280;6539;49.476;8.484;2023-05-24T12:53:06;100958.81;;;23.75;24.96
12949;BME280;6539;49.476;8.484;2023-05-24T12:55:35;100938.22;;;23.78;25.25
12949;BME280;6539;49.476;8.484;2023-05-24T12:58:03;100954.38;;;23.83;24.49
12949;BME280;6539;49.476;8.484;2023-05-24T13:00:33;100957.56;;;23.61;24.66
12949;BME280;6539;49.476;8.484;2023-05-24T13:02:59;100967.69;;;23.59;25.08
12949;BME280;6539;49.476;8.484;2023-05-24T13:05:28;100960.53;;;23.58;25.08
12949;BME280;6539;49.476;8.484;2023-05-24T13:07:58;100964.81;;;23.68;25.24
12949;BME280;6539;49.476;8.484;2023-05-24T13:10:25;100948.56;;;23.72;24.88
12949;BME280;6539;49.476;8.484;2023-05-24T13:12:52;100955.91;;;23.55;25.17
12949;BME280;6539;49.476;8.484;2023-05-24T13:15:23;100949.22;;;23.52;24.88
12949;BME280;6539;49.476;8.484;2023-05-24T13:17:51;100947.28;;;23.43;24.44
12949;BME280;6539;49.476;8.484;2023-05-24T13:20:18;100952.09;;;23.43;24.22
12949;BME280;6539;49.476;8.484;2023-05-24T13:22:47;100947.06;;;23.47;22.91
12949;BME280;6539;49.476;8.484;2023-05-24T13:25:14;100936.72;;;23.38;24.05
12949;BME280;6539;49.476;8.484;2023-05-24T13:27:40;100928.75;;;23.22;24.49
12949;BME280;6539;49.476;8.484;2023-05-24T13:30:07;100928.03;;;23.36;24.73
12949;BME280;6539;49.476;8.484;2023-05-24T13:32:33;100927.47;;;23.47;24.76
12949;BME280;6539;49.476;8.484;2023-05-24T13:34:58;100913.75;;;23.64;24.62